createdAt,value
2022-10-11T00:13:39.146Z,98797.38
2022-10-11T00:16:19.227Z,98796.53
2022-10-11T00:18:52.372Z,98803.59
2022-10-11T00:21:18.990Z,98804.34
2022-10-11T00:23:59.165Z,98807.00
2022-10-11T00:26:32.340Z,98822.09
2022-10-11T00:29:07.162Z,98819.31
2022-10-11T00:39:00.145Z,98829.19
2022-10-11T00:41:40.194Z,98838.16
2022-10-11T00:44:19.213Z,98837.22
2022-10-11T00:47:06.418Z,98840.84
2022-10-11T00:49:44.996Z,98846.19
2022-10-11T00:52:34.192Z,98844.47
2022-10-11T01:05:49.173Z,98858.94
2022-10-11T01:08:23.312Z,98857.09
2022-10-11T01:10:57.229Z,98871.44
2022-10-11T01:13:47.176Z,98876.78
2022-10-11T01:16:38.166Z,98881.41
2022-10-11T01:33:29.137Z,98890.81
2022-10-11T01:36:20.170Z,98897.13
2022-10-11T01:39:01.046Z,98898.84
2022-10-11T01:41:49.183Z,98901.41
2022-10-11T01:44:25.989Z,98897.91
2022-10-11T01:47:07.217Z,98896.19
2022-10-11T02:00:23.166Z,98911.47
2022-10-11T02:03:20.290Z,98915.09
2022-10-11T02:06:10.151Z,98917.06
2022-10-11T02:08:53.439Z,98922.41
2022-10-11T02:11:37.166Z,98934.16
2022-10-11T02:14:15.507Z,98936.09
2022-10-11T02:27:14.142Z,98946.66
2022-10-11T02:29:57.189Z,98947.63
2022-10-11T02:32:33.123Z,98944.00
2022-10-11T02:35:10.162Z,98945.72
2022-10-11T02:37:53.262Z,98945.94
2022-10-11T02:54:14.162Z,98956.66
2022-10-11T02:56:47.211Z,98962.84
2022-10-11T02:59:13.958Z,98963.69
2022-10-11T03:01:54.236Z,98976.22
2022-10-11T03:04:27.385Z,98976.09
2022-10-11T03:06:54.123Z,98981.56
2022-10-11T03:19:32.137Z,98989.78
2022-10-11T03:22:12.155Z,98990.63
2022-10-11T03:24:47.112Z,98991.56
2022-10-11T03:27:20.213Z,99004.00
2022-10-11T03:29:53.240Z,99006.66
2022-10-11T03:32:19.805Z,99017.28
2022-10-11T03:48:44.801Z,99020.84
2022-10-11T03:51:18.196Z,99027.03
2022-10-11T03:53:51.166Z,99027.88
2022-10-11T03:56:24.256Z,99034.09
2022-10-11T03:58:50.865Z,99030.56
2022-10-11T04:15:23.179Z,99055.69
2022-10-11T04:17:56.188Z,99060.09
2022-10-11T04:20:22.993Z,99058.44
2022-10-11T04:23:03.137Z,99061.13
2022-10-11T04:25:38.498Z,99071.06
2022-10-11T04:28:12.213Z,99066.69
2022-10-11T04:41:23.162Z,99086.00
2022-10-11T04:43:56.583Z,99086.97
2022-10-11T04:46:30.150Z,99091.34
2022-10-11T04:49:03.335Z,99097.78
2022-10-11T04:51:40.208Z,99100.56
2022-10-11T04:54:13.501Z,99105.91
2022-10-11T05:07:03.122Z,99123.47
2022-10-11T05:09:43.153Z,99126.16
2022-10-11T05:12:16.206Z,99129.81
2022-10-11T05:14:42.749Z,99125.41
2022-10-11T05:17:23.174Z,99125.59
2022-10-11T05:19:56.271Z,99128.38
2022-10-11T05:22:31.186Z,99131.16
2022-10-11T05:35:40.158Z,99166.47
2022-10-11T05:38:09.050Z,99170.09
2022-10-11T05:40:49.125Z,99167.44
2022-10-11T05:43:22.135Z,99173.00
2022-10-11T05:45:49.099Z,99173.09
2022-10-11T05:48:29.179Z,99177.66
2022-10-11T06:01:40.267Z,99193.97
2022-10-11T06:04:13.149Z,99204.69
2022-10-11T06:06:39.689Z,99202.88
2022-10-11T06:09:20.145Z,99206.41
2022-10-11T06:11:53.157Z,99219.00
2022-10-11T06:14:19.698Z,99219.00
2022-10-11T06:27:17.131Z,99226.63
2022-10-11T06:29:57.162Z,99231.78
2022-10-11T06:32:35.158Z,99242.56
2022-10-11T06:35:08.143Z,99236.44
2022-10-11T06:37:41.209Z,99243.72
2022-10-11T06:40:16.162Z,99248.41
2022-10-11T06:42:51.186Z,99250.28
2022-10-11T06:55:39.113Z,99262.88
2022-10-11T06:58:21.188Z,99272.59
2022-10-11T07:00:54.255Z,99275.28
2022-10-11T07:03:20.830Z,99271.88
2022-10-11T07:06:07.454Z,99287.00
2022-10-11T07:08:41.892Z,99294.09
2022-10-11T07:21:32.111Z,99304.28
2022-10-11T07:24:13.152Z,99305.97
2022-10-11T07:26:46.205Z,99300.63
2022-10-11T07:29:12.786Z,99298.94
2022-10-11T07:31:53.144Z,99303.25
2022-10-11T07:34:26.277Z,99310.28
2022-10-11T07:47:15.118Z,99324.78
2022-10-11T07:49:55.134Z,99322.22
2022-10-11T07:52:28.273Z,99330.13
2022-10-11T07:54:54.806Z,99323.94
2022-10-11T07:57:35.113Z,99325.66
2022-10-11T08:00:10.370Z,99321.34
2022-10-11T08:02:49.245Z,99322.22
2022-10-11T08:15:59.158Z,99329.28
2022-10-11T08:18:34.123Z,99335.56
2022-10-11T08:21:13.161Z,99330.13
2022-10-11T08:23:46.442Z,99330.13
2022-10-11T08:26:20.155Z,99327.34
2022-10-11T08:28:53.441Z,99332.53
2022-10-11T08:41:51.096Z,99339.41
2022-10-11T08:45:10.082Z,99340.19
2022-10-11T08:47:45.235Z,99336.47
2022-10-11T08:50:26.158Z,99342.50
2022-10-11T08:53:07.654Z,99349.38
2022-10-11T09:10:10.146Z,99357.59
2022-10-11T09:12:58.161Z,99361.88
2022-10-11T09:15:52.135Z,99351.88
2022-10-11T09:18:52.402Z,99352.56
2022-10-11T09:21:47.138Z,99344.47
2022-10-11T09:34:59.136Z,99350.38
2022-10-11T09:37:43.977Z,99357.28
2022-10-11T09:40:44.108Z,99349.81
2022-10-11T09:43:17.824Z,99347.72
2022-10-11T09:45:51.133Z,99349.06
2022-10-11T09:48:32.082Z,99355.56
2022-10-11T10:01:32.127Z,99349.28
2022-10-11T10:04:17.652Z,99358.31
2022-10-11T10:07:11.102Z,99352.38
2022-10-11T10:09:51.146Z,99349.84
2022-10-11T10:12:29.297Z,99356.28
2022-10-11T10:29:08.152Z,99352.69
2022-10-11T10:35:13.142Z,99355.25
2022-10-11T10:38:01.836Z,99349.44
2022-10-11T10:40:54.110Z,99356.66
2022-10-11T10:43:34.519Z,99354.28
2022-10-11T10:56:42.099Z,99354.09
2022-10-11T10:59:51.154Z,99353.94
2022-10-11T11:02:40.704Z,99357.88
2022-10-11T11:05:34.361Z,99363.25
2022-10-11T11:08:16.694Z,99358.84
2022-10-11T11:21:31.273Z,99361.91
2022-10-11T11:24:27.138Z,99355.09
2022-10-11T11:27:17.209Z,99354.63
2022-10-11T11:30:07.148Z,99350.59
2022-10-11T11:32:56.537Z,99342.19
2022-10-11T11:49:28.138Z,99338.28
2022-10-11T11:52:04.259Z,99331.81
2022-10-11T11:54:55.161Z,99331.31
2022-10-11T11:57:48.370Z,99333.28
2022-10-11T12:00:33.130Z,99335.50
2022-10-11T12:03:16.022Z,99329.63
2022-10-11T12:16:19.089Z,99328.91
2022-10-11T12:19:08.141Z,99330.16
2022-10-11T12:21:43.891Z,99330.75
2022-10-11T12:24:28.135Z,99327.72
2022-10-11T12:27:40.650Z,99326.22
2022-10-11T12:41:32.093Z,99325.34
2022-10-11T12:44:28.248Z,99321.53
2022-10-11T12:47:31.616Z,99320.56
2022-10-11T12:50:24.117Z,99320.56
2022-10-11T12:53:17.039Z,99321.66
2022-10-11T13:09:48.931Z,99312.47
2022-10-11T13:12:25.895Z,99319.34
2022-10-11T13:15:14.118Z,99306.31
2022-10-11T13:17:47.730Z,99308.50
2022-10-11T13:20:27.124Z,99307.00
2022-10-11T13:23:00.461Z,99317.56
2022-10-11T13:35:50.082Z,99323.69
2022-10-11T13:38:35.173Z,99319.63
2022-10-11T13:41:09.725Z,99321.78
2022-10-11T13:43:44.152Z,99320.22
2022-10-11T13:46:22.699Z,99319.81
2022-10-11T13:49:07.109Z,99321.50
2022-10-11T14:02:28.133Z,99320.63
2022-10-11T14:05:01.337Z,99322.44
2022-10-11T14:07:42.129Z,99320.50
2022-10-11T14:10:20.203Z,99322.91
2022-10-11T14:13:13.185Z,99326.69
2022-10-11T14:30:23.506Z,99313.41
2022-10-11T14:32:50.119Z,99320.47
2022-10-11T14:35:30.986Z,99316.50
2022-10-11T14:38:11.139Z,99313.88
2022-10-11T14:40:44.176Z,99311.22
2022-10-11T14:43:10.730Z,99306.34
2022-10-11T14:56:08.617Z,99313.38
2022-10-11T14:58:49.127Z,99308.28
2022-10-11T15:01:22.337Z,99308.13
2022-10-11T15:03:48.952Z,99310.66
2022-10-11T15:06:36.125Z,99313.19
2022-10-11T15:09:09.693Z,99310.19
2022-10-11T15:22:05.110Z,99331.16
2022-10-11T15:24:49.348Z,99325.53
2022-10-11T15:27:24.334Z,99328.31
2022-10-11T15:29:57.127Z,99330.13
2022-10-11T15:32:30.156Z,99326.72
2022-10-11T15:34:56.809Z,99320.75
2022-10-11T15:37:39.117Z,99334.41
2022-10-11T15:50:49.143Z,99333.16
2022-10-11T15:53:27.572Z,99332.44
2022-10-11T15:56:11.146Z,99333.44
2022-10-11T15:58:44.271Z,99335.28
2022-10-11T16:01:22.173Z,99336.13
2022-10-11T16:03:55.205Z,99338.97
2022-10-11T16:16:45.101Z,99344.50
2022-10-11T16:19:26.754Z,99342.53
2022-10-11T16:22:00.174Z,99350.19
2022-10-11T16:24:33.138Z,99351.72
2022-10-11T16:27:06.374Z,99348.78
2022-10-11T16:29:33.012Z,99352.91
2022-10-11T16:42:30.094Z,99360.78
2022-10-11T16:45:11.117Z,99359.31
2022-10-11T16:47:44.419Z,99359.75
2022-10-11T16:50:19.134Z,99361.94
2022-10-11T16:52:52.873Z,99352.59
2022-10-11T16:55:26.137Z,99366.25
2022-10-11T16:58:01.144Z,99372.06
2022-10-11T17:10:49.081Z,99382.41
2022-10-11T17:13:31.138Z,99385.28
2022-10-11T17:16:05.734Z,99384.75
2022-10-11T17:18:39.121Z,99377.03
2022-10-11T17:21:15.577Z,99386.28
2022-10-11T17:23:49.837Z,99386.59
2022-10-11T17:37:01.101Z,99386.03
2022-10-11T17:39:34.158Z,99388.09
2022-10-11T17:42:00.697Z,99383.91
2022-10-11T17:44:42.133Z,99388.53
2022-10-11T17:47:15.347Z,99390.44
2022-10-11T17:49:41.916Z,99394.19
2022-10-11T18:02:39.084Z,99387.84
2022-10-11T18:05:19.152Z,99387.19
2022-10-11T18:07:52.430Z,99386.53
2022-10-11T18:10:26.162Z,99392.91
2022-10-11T18:13:03.048Z,99391.25
2022-10-11T18:15:48.176Z,99386.97
2022-10-11T18:18:26.213Z,99388.78
2022-10-11T18:31:17.764Z,99393.91
2022-10-11T18:34:01.132Z,99389.50
2022-10-11T18:36:34.165Z,99382.75
2022-10-11T18:39:12.159Z,99386.59
2022-10-11T18:41:45.170Z,99385.75
2022-10-11T18:44:21.120Z,99381.22
2022-10-11T18:57:32.114Z,99384.59
2022-10-11T19:00:22.465Z,99386.72
2022-10-11T19:03:07.142Z,99389.50
2022-10-11T19:05:40.294Z,99392.09
2022-10-11T19:08:06.842Z,99385.00
2022-10-11T19:24:32.144Z,99385.81
2022-10-11T19:27:05.297Z,99385.81
2022-10-11T19:29:39.821Z,99388.50
2022-10-11T19:32:13.193Z,99378.84
2022-10-11T19:34:46.107Z,99387.94
2022-10-11T19:37:19.289Z,99387.28
2022-10-11T19:39:54.102Z,99393.69
2022-10-11T19:49:45.094Z,99396.78
2022-10-11T19:52:25.115Z,99384.56
2022-10-11T19:55:00.178Z,99390.88
2022-10-11T19:57:33.425Z,99384.75
2022-10-11T20:00:08.721Z,99393.09
2022-10-11T20:02:42.114Z,99380.75
2022-10-11T20:18:37.901Z,99386.69
2022-10-11T20:21:07.670Z,99392.06
2022-10-11T20:23:50.127Z,99386.69
2022-10-11T20:26:24.634Z,99384.78
2022-10-11T20:29:01.139Z,99388.59
2022-10-11T20:42:54.115Z,99396.47
2022-10-11T20:45:27.150Z,99403.53
2022-10-11T20:47:53.701Z,99400.09
2022-10-11T20:50:34.102Z,99402.03
2022-10-11T20:53:07.163Z,99401.16
2022-10-11T20:55:33.758Z,99394.94
2022-10-11T20:58:16.118Z,99404.69
2022-10-11T21:11:25.106Z,99395.50
2022-10-11T21:14:03.604Z,99399.16
2022-10-11T21:16:44.102Z,99395.72
2022-10-11T21:19:17.158Z,99400.28
2022-10-11T21:21:53.636Z,99391.53
2022-10-11T21:24:27.274Z,99396.09
2022-10-11T21:37:17.075Z,99392.28
2022-10-11T21:39:57.834Z,99395.91
2022-10-11T21:42:31.239Z,99393.41
2022-10-11T21:45:04.096Z,99392.56
2022-10-11T21:47:39.126Z,99391.88
2022-10-11T22:03:54.098Z,99397.97
2022-10-11T22:06:27.128Z,99398.91
2022-10-11T22:08:53.669Z,99408.00
2022-10-11T22:11:34.139Z,99404.53
2022-10-11T22:14:08.890Z,99408.25
2022-10-11T22:16:42.114Z,99400.34
2022-10-11T22:19:17.069Z,99397.84
2022-10-11T22:32:04.076Z,99392.38
2022-10-11T22:34:46.154Z,99394.22
2022-10-11T22:37:19.140Z,99393.53
2022-10-11T22:39:45.678Z,99392.75
2022-10-11T22:42:27.696Z,99399.94
2022-10-11T22:45:01.302Z,99395.44
2022-10-11T22:57:50.082Z,99392.53
2022-10-11T23:00:30.094Z,99393.47
2022-10-11T23:03:03.541Z,99394.63
2022-10-11T23:05:38.104Z,99389.44
2022-10-11T23:08:11.213Z,99386.97
2022-10-11T23:24:25.126Z,99400.84
2022-10-11T23:26:58.142Z,99403.53
2022-10-11T23:29:24.702Z,99412.50
2022-10-11T23:32:05.099Z,99408.19
2022-10-11T23:34:38.269Z,99413.63
2022-10-11T23:37:12.165Z,99391.47
2022-10-11T23:39:47.226Z,99398.53
2022-10-11T23:52:34.061Z,99404.25
2022-10-11T23:55:10.080Z,99407.00
2022-10-11T23:57:43.097Z,99396.50
